createdAt,value
2023-07-02T00:01:10.257Z,97298.38
2023-07-02T00:03:39.401Z,97299.33
2023-07-02T00:06:07.251Z,97299.27
2023-07-02T00:08:34.917Z,97298.86
2023-07-02T00:11:02.467Z,97302.52
2023-07-02T00:13:29.937Z,97302.70
2023-07-02T00:15:57.376Z,97301.14
2023-07-02T00:18:24.790Z,97301.81
2023-07-02T00:20:52.277Z,97303.05
2023-07-02T00:23:19.710Z,97300.77
2023-07-02T00:25:47.239Z,97300.29
2023-07-02T00:28:14.700Z,97299.77
2023-07-02T00:30:42.162Z,97303.76
2023-07-02T00:33:09.657Z,97304.13
2023-07-02T00:35:37.090Z,97302.15
2023-07-02T00:38:04.655Z,97298.05
2023-07-02T00:40:32.493Z,97294.52
2023-07-02T00:42:59.905Z,97293.42
2023-07-02T00:45:27.714Z,97294.99
2023-07-02T00:47:55.988Z,97293.74
2023-07-02T00:50:24.229Z,97293.63
2023-07-02T00:52:51.644Z,97291.16
2023-07-02T00:55:19.515Z,97291.80
2023-07-02T00:57:47.865Z,97288.91
2023-07-02T01:00:15.435Z,97293.00
2023-07-02T01:02:45.791Z,97299.61
2023-07-02T01:05:16.858Z,97301.80
2023-07-02T01:07:44.394Z,97303.04
2023-07-02T01:10:12.787Z,97302.65
2023-07-02T01:12:40.346Z,97306.07
2023-07-02T01:15:08.460Z,97308.28
2023-07-02T01:17:38.982Z,97306.02
2023-07-02T01:20:09.893Z,97304.27
2023-07-02T01:22:37.487Z,97305.38
2023-07-02T01:25:05.258Z,97299.60
2023-07-02T01:27:32.744Z,97299.02
2023-07-02T01:30:00.225Z,97298.01
2023-07-02T01:32:28.049Z,97299.39
2023-07-02T01:34:55.503Z,97295.56
2023-07-02T01:37:22.985Z,97295.83
2023-07-02T01:39:50.403Z,97294.94
2023-07-02T01:42:20.233Z,97297.06
2023-07-02T01:44:52.566Z,97297.25
2023-07-02T01:47:21.412Z,97291.70
2023-07-02T01:49:49.071Z,97290.23
2023-07-02T01:52:17.105Z,97291.33
2023-07-02T01:54:45.508Z,97289.25
2023-07-02T01:57:12.911Z,97285.86
2023-07-02T01:59:40.327Z,97282.40
2023-07-02T02:02:07.854Z,97282.63
2023-07-02T02:04:37.395Z,97282.25
2023-07-02T02:07:04.946Z,97284.06
2023-07-02T02:09:33.788Z,97285.02
2023-07-02T02:12:01.361Z,97287.08
2023-07-02T02:14:28.992Z,97286.73
2023-07-02T02:16:56.387Z,97286.16
2023-07-02T02:19:24.648Z,97284.26
2023-07-02T02:21:52.122Z,97282.45
2023-07-02T02:24:19.510Z,97277.00
2023-07-02T02:26:46.929Z,97271.23
2023-07-02T02:29:14.324Z,97271.48
2023-07-02T02:31:41.839Z,97268.81
2023-07-02T02:34:09.528Z,97264.42
2023-07-02T02:36:37.066Z,97259.41
2023-07-02T02:39:04.456Z,97260.02
2023-07-02T02:41:32.328Z,97264.65
2023-07-02T02:44:00.753Z,97266.90
2023-07-02T02:46:28.604Z,97265.67
2023-07-02T02:48:56.106Z,97264.30
2023-07-02T02:51:23.471Z,97264.16
2023-07-02T02:53:50.946Z,97263.28
2023-07-02T02:56:18.410Z,97265.81
2023-07-02T02:58:45.842Z,97266.83
2023-07-02T03:01:13.671Z,97266.38
2023-07-02T03:03:47.206Z,97267.27
2023-07-02T03:06:16.288Z,97263.27
2023-07-02T03:08:44.199Z,97260.37
2023-07-02T03:11:11.739Z,97258.59
2023-07-02T03:13:39.285Z,97260.28
2023-07-02T03:16:06.979Z,97258.47
2023-07-02T03:18:34.773Z,97255.06
2023-07-02T03:21:02.221Z,97254.89
2023-07-02T03:23:29.670Z,97250.13
2023-07-02T03:25:57.175Z,97247.63
2023-07-02T03:28:24.672Z,97250.29
2023-07-02T03:30:52.733Z,97253.50
2023-07-02T03:33:20.307Z,97250.02
2023-07-02T03:35:47.688Z,97250.98
2023-07-02T03:38:16.246Z,97253.30
2023-07-02T03:40:43.700Z,97250.96
2023-07-02T03:43:12.020Z,97251.73
2023-07-02T03:45:39.529Z,97253.50
2023-07-02T03:48:07.078Z,97257.12
2023-07-02T03:50:34.767Z,97260.13
2023-07-02T03:53:02.446Z,97263.45
2023-07-02T03:55:29.849Z,97261.38
2023-07-02T03:57:57.182Z,97265.39
2023-07-02T04:00:24.585Z,97272.31
2023-07-02T04:02:52.885Z,97273.76
2023-07-02T04:05:21.431Z,97274.71
2023-07-02T04:08:49.407Z,97276.96
2023-07-02T04:11:16.786Z,97272.78
2023-07-02T04:13:44.327Z,97273.96
2023-07-02T04:16:11.863Z,97278.70
2023-07-02T04:18:39.328Z,97277.17
2023-07-02T04:21:06.934Z,97276.77
2023-07-02T04:23:34.364Z,97275.16
2023-07-02T04:26:09.067Z,97275.31
2023-07-02T04:28:49.771Z,97279.48
2023-07-02T04:31:20.580Z,97276.67
2023-07-02T04:33:48.145Z,97281.67
2023-07-02T04:36:15.711Z,97284.65
2023-07-02T04:38:43.193Z,97281.91
2023-07-02T04:41:11.619Z,97278.98
2023-07-02T04:43:39.884Z,97280.41
2023-07-02T04:46:08.915Z,97286.05
2023-07-02T04:48:37.393Z,97284.82
2023-07-02T04:51:05.104Z,97286.65
2023-07-02T04:53:32.560Z,97284.62
2023-07-02T04:56:00.177Z,97283.84
2023-07-02T04:58:28.402Z,97287.59
2023-07-02T05:00:55.825Z,97289.15
2023-07-02T05:03:23.526Z,97291.45
2023-07-02T05:05:50.990Z,97292.50
2023-07-02T05:08:18.375Z,97295.84
2023-07-02T05:10:45.946Z,97298.67
2023-07-02T05:13:13.563Z,97298.16
2023-07-02T05:15:40.966Z,97294.10
2023-07-02T05:18:12.219Z,97293.93
2023-07-02T05:20:39.688Z,97296.23
2023-07-02T05:23:07.141Z,97293.81
2023-07-02T05:25:37.193Z,97291.39
2023-07-02T05:28:04.747Z,97293.27
2023-07-02T05:30:32.208Z,97286.20
2023-07-02T05:32:59.777Z,97290.15
2023-07-02T05:35:27.197Z,97288.02
2023-07-02T05:37:54.587Z,97283.45
2023-07-02T05:40:22.076Z,97280.80
2023-07-02T05:42:49.715Z,97283.37
2023-07-02T05:45:17.324Z,97283.95
2023-07-02T05:47:44.823Z,97281.58
2023-07-02T05:50:12.231Z,97286.50
2023-07-02T05:52:39.860Z,97287.89
2023-07-02T05:55:11.530Z,97288.14
2023-07-02T05:57:39.803Z,97286.66
2023-07-02T06:00:09.528Z,97288.51
2023-07-02T06:02:40.253Z,97289.69
2023-07-02T06:05:08.168Z,97283.27
2023-07-02T06:07:35.892Z,97280.31
2023-07-02T06:10:04.322Z,97278.16
2023-07-02T06:12:31.716Z,97276.95
2023-07-02T06:14:59.104Z,97279.31
2023-07-02T06:17:26.569Z,97282.53
2023-07-02T06:19:54.053Z,97281.03
2023-07-02T06:22:21.535Z,97283.34
2023-07-02T06:24:49.957Z,97285.85
2023-07-02T06:27:17.574Z,97290.41
2023-07-02T06:29:45.081Z,97292.85
2023-07-02T06:32:12.502Z,97295.11
2023-07-02T06:34:39.894Z,97290.29
2023-07-02T06:37:07.492Z,97288.81
2023-07-02T06:39:34.897Z,97289.02
2023-07-02T06:42:02.636Z,97289.73
2023-07-02T06:44:32.405Z,97284.50
2023-07-02T06:46:59.914Z,97286.15
2023-07-02T06:49:27.334Z,97286.05
2023-07-02T06:51:54.803Z,97287.83
2023-07-02T06:54:22.218Z,97288.17
2023-07-02T06:56:49.622Z,97288.19
2023-07-02T06:59:21.894Z,97288.85
2023-07-02T07:01:50.377Z,97293.05
2023-07-02T07:04:17.933Z,97288.77
2023-07-02T07:06:45.510Z,97293.16
2023-07-02T07:09:13.034Z,97294.91
2023-07-02T07:11:49.481Z,97291.94
2023-07-02T07:14:17.353Z,97290.20
2023-07-02T07:16:44.794Z,97291.01
2023-07-02T07:19:12.243Z,97293.71
2023-07-02T07:21:41.088Z,97291.29
2023-07-02T07:24:18.252Z,97288.94
2023-07-02T07:26:47.090Z,97286.13
2023-07-02T07:29:14.813Z,97289.55
2023-07-02T07:31:42.322Z,97288.92
2023-07-02T07:34:09.940Z,97289.77
2023-07-02T07:36:38.605Z,97285.94
2023-07-02T07:39:06.153Z,97288.26
2023-07-02T07:41:33.902Z,97286.35
2023-07-02T07:44:02.604Z,97286.46
2023-07-02T07:46:30.108Z,97285.53
2023-07-02T07:48:57.607Z,97282.71
2023-07-02T07:51:25.009Z,97281.17
2023-07-02T07:53:52.404Z,97281.25
2023-07-02T07:56:19.819Z,97283.08
2023-07-02T07:58:47.339Z,97283.16
2023-07-02T08:01:14.844Z,97282.95
2023-07-02T08:03:42.377Z,97284.23
2023-07-02T08:06:10.433Z,97276.79
2023-07-02T08:08:38.112Z,97269.56
2023-07-02T08:11:05.617Z,97270.65
2023-07-02T08:13:33.074Z,97270.77
2023-07-02T08:16:06.312Z,97265.80
2023-07-02T08:18:50.778Z,97265.23
2023-07-02T08:21:21.980Z,97265.16
2023-07-02T08:23:49.494Z,97260.64
2023-07-02T08:26:17.001Z,97260.13
2023-07-02T08:28:44.538Z,97264.68
2023-07-02T08:31:12.151Z,97264.34
2023-07-02T08:33:39.628Z,97257.77
2023-07-02T08:36:07.144Z,97258.76
2023-07-02T08:38:34.881Z,97261.02
2023-07-02T08:41:02.388Z,97257.40
2023-07-02T08:43:30.180Z,97255.71
2023-07-02T08:45:57.627Z,97255.11
2023-07-02T08:48:27.555Z,97257.06
2023-07-02T08:50:55.154Z,97257.41
2023-07-02T08:53:30.876Z,97257.86
2023-07-02T08:55:58.471Z,97258.23
2023-07-02T08:58:26.409Z,97260.23
2023-07-02T09:01:11.754Z,97265.90
2023-07-02T09:04:07.464Z,97261.86
2023-07-02T09:06:36.400Z,97261.38
2023-07-02T09:09:07.333Z,97264.54
2023-07-02T09:11:35.804Z,97260.31
2023-07-02T09:14:03.741Z,97261.15
2023-07-02T09:16:33.064Z,97259.05
2023-07-02T09:19:04.368Z,97261.40
2023-07-02T09:21:48.787Z,97259.52
2023-07-02T09:24:20.613Z,97257.48
2023-07-02T09:26:50.763Z,97255.56
2023-07-02T09:29:33.096Z,97254.84
2023-07-02T09:32:11.293Z,97254.29
2023-07-02T09:34:40.835Z,97254.11
2023-07-02T09:37:08.492Z,97255.10
2023-07-02T09:39:36.970Z,97256.84
2023-07-02T09:42:07.106Z,97254.69
2023-07-02T09:44:35.218Z,97255.23
2023-07-02T09:47:06.673Z,97252.01
2023-07-02T09:49:38.259Z,97253.34
2023-07-02T09:52:06.742Z,97251.39
2023-07-02T09:54:34.357Z,97254.13
2023-07-02T09:57:02.085Z,97250.71
2023-07-02T09:59:29.893Z,97244.23
2023-07-02T10:01:57.885Z,97245.90
2023-07-02T10:04:25.582Z,97247.88
2023-07-02T10:06:54.838Z,97247.28
2023-07-02T10:09:35.071Z,97249.21
2023-07-02T10:12:02.721Z,97247.61
2023-07-02T10:14:42.564Z,97247.55
2023-07-02T10:17:10.076Z,97245.42
2023-07-02T10:19:42.404Z,97244.88
2023-07-02T10:22:10.289Z,97237.70
2023-07-02T10:24:38.574Z,97229.48
2023-07-02T10:27:06.079Z,97228.98
2023-07-02T10:29:33.510Z,97224.18
2023-07-02T10:32:01.323Z,97217.39
2023-07-02T10:34:37.890Z,97215.60
2023-07-02T10:37:05.593Z,97213.41
2023-07-02T10:39:33.109Z,97210.17
2023-07-02T10:42:10.402Z,97207.89
2023-07-02T10:44:53.892Z,97209.72
2023-07-02T10:47:21.405Z,97210.58
2023-07-02T10:49:48.923Z,97208.64
2023-07-02T10:52:16.310Z,97211.93
2023-07-02T10:54:44.276Z,97203.78
2023-07-02T10:57:12.924Z,97200.52
2023-07-02T10:59:40.371Z,97195.08
2023-07-02T11:02:07.930Z,97194.19
2023-07-02T11:04:35.396Z,97195.31
2023-07-02T11:07:02.853Z,97195.75
2023-07-02T11:09:30.460Z,97197.60
2023-07-02T11:11:59.580Z,97197.29
2023-07-02T11:14:36.996Z,97194.81
2023-07-02T11:17:06.620Z,97196.83
2023-07-02T11:19:34.730Z,97192.83
2023-07-02T11:22:03.639Z,97191.64
2023-07-02T11:24:35.523Z,97190.16
2023-07-02T11:27:04.754Z,97195.30
2023-07-02T11:29:32.929Z,97193.70
2023-07-02T11:32:07.823Z,97191.46
2023-07-02T11:34:35.365Z,97192.15
2023-07-02T11:37:02.872Z,97191.42
2023-07-02T11:39:30.316Z,97192.23
2023-07-02T11:41:57.754Z,97196.52
2023-07-02T11:44:25.161Z,97200.27
2023-07-02T11:46:53.354Z,97205.70
2023-07-02T11:49:21.055Z,97211.17
2023-07-02T11:51:49.861Z,97220.55
2023-07-02T11:54:19.051Z,97226.66
2023-07-02T11:56:46.495Z,97229.52
2023-07-02T11:59:13.964Z,97228.65
2023-07-02T12:01:41.522Z,97227.86
2023-07-02T12:04:13.110Z,97225.25
2023-07-02T12:06:40.665Z,97224.15
2023-07-02T12:09:08.040Z,97221.30
2023-07-02T12:11:35.425Z,97223.38
2023-07-02T12:14:02.863Z,97224.27
2023-07-02T12:16:30.265Z,97220.30
2023-07-02T12:18:57.726Z,97216.83
2023-07-02T12:21:25.324Z,97210.70
2023-07-02T12:23:52.912Z,97212.37
2023-07-02T12:26:20.427Z,97218.77
2023-07-02T12:28:47.809Z,97224.13
2023-07-02T12:31:15.264Z,97226.84
2023-07-02T12:33:42.943Z,97233.23
2023-07-02T12:36:10.761Z,97245.85
2023-07-02T12:38:38.158Z,97259.27
2023-07-02T12:41:05.798Z,97267.38
2023-07-02T12:43:33.217Z,97268.38
2023-07-02T12:46:00.801Z,97266.83
2023-07-02T12:48:28.238Z,97266.02
2023-07-02T12:50:59.736Z,97266.06
2023-07-02T12:53:27.635Z,97265.91
2023-07-02T12:55:56.085Z,97264.48
2023-07-02T12:58:26.104Z,97269.25
2023-07-02T13:00:53.572Z,97267.23
2023-07-02T13:03:21.946Z,97265.91
2023-07-02T13:05:49.971Z,97259.48
2023-07-02T13:08:17.705Z,97257.89
2023-07-02T13:10:45.195Z,97254.75
2023-07-02T13:13:22.747Z,97254.05
2023-07-02T13:16:27.078Z,97263.91
2023-07-02T13:18:56.861Z,97275.87
2023-07-02T13:21:24.292Z,97277.36
2023-07-02T13:23:51.702Z,97279.91
2023-07-02T13:26:19.319Z,97277.03
2023-07-02T13:28:48.867Z,97276.26
2023-07-02T13:31:17.133Z,97270.93
2023-07-02T13:33:44.605Z,97267.27
2023-07-02T13:36:11.999Z,97266.51
2023-07-02T13:38:39.487Z,97267.39
2023-07-02T13:41:06.960Z,97271.73
2023-07-02T13:43:34.395Z,97275.70
2023-07-02T13:46:01.936Z,97276.38
2023-07-02T13:48:29.470Z,97275.23
2023-07-02T13:50:56.840Z,97275.84
2023-07-02T13:53:24.285Z,97276.45
2023-07-02T13:55:52.234Z,97278.05
2023-07-02T13:58:29.423Z,97274.84
2023-07-02T14:00:58.199Z,97271.65
2023-07-02T14:03:25.695Z,97274.76
2023-07-02T14:05:53.388Z,97278.36
2023-07-02T14:08:21.117Z,97293.02
2023-07-02T14:10:48.854Z,97321.45
2023-07-02T14:13:16.585Z,97347.17
2023-07-02T14:15:43.999Z,97351.38
2023-07-02T14:18:12.856Z,97360.65
2023-07-02T14:20:40.405Z,97362.14
2023-07-02T14:23:08.265Z,97368.15
2023-07-02T14:25:41.958Z,97370.10
2023-07-02T14:28:10.209Z,97374.94
2023-07-02T14:30:37.894Z,97375.91
2023-07-02T14:33:05.502Z,97375.47
2023-07-02T14:35:33.039Z,97376.65
2023-07-02T14:38:00.413Z,97381.34
2023-07-02T14:40:28.878Z,97382.95
2023-07-02T14:42:59.704Z,97384.57
2023-07-02T14:45:27.197Z,97385.78
2023-07-02T14:47:54.781Z,97382.27
2023-07-02T14:50:22.279Z,97382.39
2023-07-02T14:52:49.686Z,97377.28
2023-07-02T14:55:17.128Z,97368.77
2023-07-02T14:57:44.874Z,97362.13
2023-07-02T15:00:12.809Z,97350.89
2023-07-02T15:02:40.269Z,97343.78
2023-07-02T15:05:08.162Z,97344.80
2023-07-02T15:07:36.236Z,97347.52
2023-07-02T15:10:03.640Z,97347.17
2023-07-02T15:12:31.135Z,97343.02
2023-07-02T15:14:58.618Z,97343.59
2023-07-02T15:17:32.051Z,97343.05
2023-07-02T15:20:00.751Z,97349.29
2023-07-02T15:22:28.406Z,97355.60
2023-07-02T15:24:56.039Z,97353.94
2023-07-02T15:27:23.436Z,97359.66
2023-07-02T15:29:50.875Z,97368.09
2023-07-02T15:32:18.315Z,97371.59
2023-07-02T15:34:45.795Z,97368.89
2023-07-02T15:37:18.607Z,97369.77
2023-07-02T15:39:46.020Z,97369.75
2023-07-02T15:42:13.446Z,97371.08
2023-07-02T15:44:40.906Z,97375.75
2023-07-02T15:47:13.218Z,97380.13
2023-07-02T15:49:43.126Z,97380.53
2023-07-02T15:52:10.583Z,97378.38
2023-07-02T15:54:37.936Z,97382.59
2023-07-02T15:57:05.511Z,97385.25
2023-07-02T15:59:32.982Z,97380.89
2023-07-02T16:02:00.395Z,97376.95
2023-07-02T16:04:28.082Z,97373.83
2023-07-02T16:06:55.857Z,97372.56
2023-07-02T16:09:23.421Z,97370.18
2023-07-02T16:11:53.729Z,97370.86
2023-07-02T16:14:23.402Z,97371.42
2023-07-02T16:16:55.712Z,97375.42
2023-07-02T16:19:25.837Z,97380.51
2023-07-02T16:21:56.652Z,97384.20
2023-07-02T16:26:24.110Z,97392.95
2023-07-02T16:28:51.588Z,97392.39
2023-07-02T16:31:21.111Z,97393.87
2023-07-02T16:33:49.096Z,97397.75
2023-07-02T16:36:16.940Z,97400.85
2023-07-02T16:38:49.719Z,97401.15
2023-07-02T16:41:17.984Z,97400.59
2023-07-02T16:43:50.845Z,97405.82
2023-07-02T16:46:18.216Z,97407.24
2023-07-02T16:48:48.463Z,97405.98
2023-07-02T16:51:16.000Z,97400.45
2023-07-02T16:53:43.452Z,97400.14
2023-07-02T16:56:14.007Z,97405.27
2023-07-02T16:58:41.499Z,97405.70
2023-07-02T17:01:11.127Z,97401.64
2023-07-02T17:03:38.808Z,97403.64
2023-07-02T17:06:07.084Z,97406.01
2023-07-02T17:08:38.342Z,97406.67
2023-07-02T17:11:06.671Z,97411.44
2023-07-02T17:13:36.524Z,97418.59
2023-07-02T17:16:04.638Z,97412.48
2023-07-02T17:18:33.298Z,97412.26
2023-07-02T17:21:00.756Z,97418.98
2023-07-02T17:23:30.570Z,97425.72
2023-07-02T17:26:07.918Z,97429.94
2023-07-02T17:28:35.535Z,97444.34
2023-07-02T17:31:03.167Z,97455.52
2023-07-02T17:33:30.833Z,97465.92
2023-07-02T17:35:58.295Z,97470.03
2023-07-02T17:38:25.707Z,97472.73
2023-07-02T17:40:53.363Z,97476.10
2023-07-02T17:43:20.808Z,97485.60
2023-07-02T17:45:57.600Z,97494.63
2023-07-02T17:48:28.707Z,97497.95
2023-07-02T17:50:57.129Z,97505.67
2023-07-02T17:53:25.518Z,97510.38
2023-07-02T17:55:53.059Z,97503.00
2023-07-02T17:58:20.448Z,97508.02
2023-07-02T18:00:51.622Z,97510.69
2023-07-02T18:03:19.631Z,97508.66
2023-07-02T18:05:47.976Z,97501.59
2023-07-02T18:08:15.797Z,97493.55
2023-07-02T18:10:46.633Z,97493.21
2023-07-02T18:13:14.067Z,97492.48
2023-07-02T18:15:41.827Z,97489.45
2023-07-02T18:18:10.685Z,97487.68
2023-07-02T18:20:38.127Z,97482.35
2023-07-02T18:23:05.546Z,97480.27
2023-07-02T18:32:55.201Z,97491.79
2023-07-02T18:35:22.821Z,97495.89
2023-07-02T18:37:50.308Z,97497.32
2023-07-02T18:40:23.148Z,97496.90
2023-07-02T18:42:50.481Z,97496.22
2023-07-02T18:45:18.963Z,97496.06
2023-07-02T18:47:46.507Z,97493.02
2023-07-02T18:50:16.899Z,97493.96
2023-07-02T18:52:44.934Z,97493.33
2023-07-02T18:55:12.427Z,97491.80
2023-07-02T18:57:40.145Z,97490.73
2023-07-02T19:00:09.856Z,97489.79
2023-07-02T19:02:38.305Z,97487.66
2023-07-02T19:05:07.167Z,97490.08
2023-07-02T19:07:34.786Z,97498.35
2023-07-02T19:10:04.759Z,97496.32
2023-07-02T19:12:32.864Z,97498.60
2023-07-02T19:15:00.547Z,97506.79
2023-07-02T19:17:32.569Z,97507.51
2023-07-02T19:20:00.052Z,97510.80
2023-07-02T19:22:27.510Z,97515.68
2023-07-02T19:24:54.925Z,97517.73
2023-07-02T19:27:22.359Z,97514.86
2023-07-02T19:29:50.841Z,97514.84
2023-07-02T19:32:18.388Z,97519.70
2023-07-02T19:34:48.759Z,97517.91
2023-07-02T19:37:16.384Z,97519.67
2023-07-02T19:39:43.779Z,97518.14
2023-07-02T19:42:16.176Z,97517.47
2023-07-02T19:44:43.745Z,97516.48
2023-07-02T19:47:11.278Z,97514.19
2023-07-02T19:49:45.473Z,97515.19
2023-07-02T19:52:14.947Z,97518.70
2023-07-02T19:54:46.011Z,97518.96
2023-07-02T19:57:15.961Z,97523.20
2023-07-02T19:59:47.858Z,97525.52
2023-07-02T20:02:19.325Z,97525.20
2023-07-02T20:04:48.891Z,97527.95
2023-07-02T20:07:24.020Z,97530.95
2023-07-02T20:09:51.447Z,97527.56
2023-07-02T20:12:19.099Z,97525.55
2023-07-02T20:14:50.091Z,97529.41
2023-07-02T20:17:20.137Z,97528.23
2023-07-02T20:19:52.709Z,97530.33
2023-07-02T20:22:20.524Z,97529.09
2023-07-02T20:24:48.038Z,97530.49
2023-07-02T20:27:19.557Z,97534.20
2023-07-02T20:29:48.582Z,97535.22
2023-07-02T20:32:16.933Z,97533.57
2023-07-02T20:34:55.153Z,97533.95
2023-07-02T20:37:27.705Z,97532.93
2023-07-02T20:39:55.104Z,97535.64
2023-07-02T20:42:23.242Z,97535.69
2023-07-02T20:44:51.350Z,97540.04
2023-07-02T20:47:19.379Z,97540.16
2023-07-02T20:49:50.991Z,97541.45
2023-07-02T20:52:19.874Z,97544.84
2023-07-02T20:54:47.382Z,97546.01
2023-07-02T20:57:15.791Z,97545.31
2023-07-02T20:59:44.126Z,97549.56
2023-07-02T21:02:19.568Z,97564.35
2023-07-02T21:04:48.157Z,97569.58
2023-07-02T21:07:15.633Z,97571.21
2023-07-02T21:09:45.383Z,97565.88
2023-07-02T21:12:12.818Z,97568.33
2023-07-02T21:14:40.219Z,97565.70
2023-07-02T21:17:11.111Z,97568.98
2023-07-02T21:19:38.639Z,97568.59
2023-07-02T21:22:06.260Z,97570.12
2023-07-02T21:24:36.026Z,97568.11
2023-07-02T21:27:06.421Z,97566.42
2023-07-02T21:29:33.928Z,97568.61
2023-07-02T21:32:01.421Z,97573.97
2023-07-02T21:34:28.971Z,97577.66
2023-07-02T21:36:59.787Z,97579.63
2023-07-02T21:39:27.213Z,97578.44
2023-07-02T21:41:54.633Z,97580.97
2023-07-02T21:44:22.031Z,97582.38
2023-07-02T21:46:49.516Z,97585.77
2023-07-02T21:49:17.020Z,97591.33
2023-07-02T21:51:44.444Z,97594.40
2023-07-02T21:54:11.840Z,97598.13
2023-07-02T21:56:39.223Z,97597.57
2023-07-02T21:59:16.868Z,97603.07
2023-07-02T22:01:50.998Z,97604.73
2023-07-02T22:04:18.882Z,97614.70
2023-07-02T22:06:46.305Z,97613.86
2023-07-02T22:09:13.804Z,97613.13
2023-07-02T22:11:41.247Z,97616.95
2023-07-02T22:14:08.652Z,97624.31
2023-07-02T22:16:36.126Z,97627.41
2023-07-02T22:19:05.689Z,97634.52
2023-07-02T22:21:36.369Z,97633.79
2023-07-02T22:24:04.037Z,97634.45
2023-07-02T22:26:31.424Z,97636.09
2023-07-02T22:29:01.796Z,97638.58
2023-07-02T22:33:43.069Z,97641.02
2023-07-02T22:36:10.454Z,97644.27
2023-07-02T22:38:37.915Z,97642.76
2023-07-02T22:41:05.317Z,97642.82
2023-07-02T22:43:32.672Z,97642.48
2023-07-02T22:46:00.090Z,97646.27
2023-07-02T22:48:32.373Z,97648.29
2023-07-02T22:50:59.939Z,97653.34
2023-07-02T22:53:27.486Z,97655.52
2023-07-02T22:55:54.884Z,97655.02
2023-07-02T22:58:27.278Z,97659.14
2023-07-02T23:00:59.534Z,97663.96
2023-07-02T23:03:32.017Z,97664.82
2023-07-02T23:05:59.624Z,97666.21
2023-07-02T23:08:28.110Z,97667.94
2023-07-02T23:10:55.515Z,97666.42
